createdAt,value
2022-08-14T00:02:14.396Z,87467.97
2022-08-14T00:04:44.919Z,87474.44
2022-08-14T00:07:13.906Z,87463.47
2022-08-14T00:10:02.129Z,87460.44
2022-08-14T00:12:39.171Z,87460.09
2022-08-14T00:15:18.999Z,87461.25
2022-08-14T00:17:53.575Z,87462.00
2022-08-14T00:20:35.964Z,87451.84
2022-08-14T00:23:16.641Z,87449.59
2022-08-14T00:25:58.612Z,87448.06
2022-08-14T00:28:36.075Z,87446.94
2022-08-14T00:31:08.103Z,87447.69
2022-08-14T00:33:39.258Z,87446.22
2022-08-14T00:36:37.635Z,87444.69
2022-08-14T00:39:14.794Z,87449.22
2022-08-14T00:45:55.286Z,87455.69
2022-08-14T00:48:34.723Z,87443.97
2022-08-14T00:51:07.955Z,87442.47
2022-08-14T00:53:36.639Z,87443.97
2022-08-14T00:56:08.598Z,87441.72
2022-08-14T00:58:45.260Z,87435.31
2022-08-14T01:01:16.728Z,87430.78
2022-08-14T01:03:45.645Z,87433.81
2022-08-14T01:06:16.959Z,87433.06
2022-08-14T01:08:52.170Z,87430.44
2022-08-14T01:11:35.649Z,87428.16
2022-08-14T01:14:25.266Z,87434.59
2022-08-14T01:16:55.399Z,87429.69
2022-08-14T01:19:24.995Z,87417.63
2022-08-14T01:21:53.357Z,87419.53
2022-08-14T01:24:30.820Z,87423.69
2022-08-14T01:27:02.697Z,87421.44
2022-08-14T01:29:59.034Z,87414.97
2022-08-14T01:32:23.073Z,87415.38
2022-08-14T01:35:17.701Z,87412.72
2022-08-14T01:37:44.129Z,87407.09
2022-08-14T01:40:12.169Z,87412.75
2022-08-14T01:42:44.704Z,87403.69
2022-08-14T01:45:12.119Z,87399.16
2022-08-14T01:47:40.252Z,87400.66
2022-08-14T01:50:10.163Z,87389.34
2022-08-14T01:52:58.859Z,87399.91
2022-08-14T01:55:27.201Z,87384.81
2022-08-14T01:58:19.014Z,87386.72
2022-08-14T02:00:43.187Z,87385.97
2022-08-14T02:03:15.930Z,87391.63
2022-08-14T02:05:43.260Z,87387.50
2022-08-14T02:08:10.752Z,87386.38
2022-08-14T02:10:46.643Z,87383.38
2022-08-14T02:13:16.758Z,87381.09
2022-08-14T02:15:45.745Z,87383.00
2022-08-14T02:18:16.152Z,87379.97
2022-08-14T02:20:43.416Z,87374.72
2022-08-14T02:23:11.475Z,87372.44
2022-08-14T02:25:39.469Z,87365.25
2022-08-14T02:28:22.182Z,87365.28
2022-08-14T02:30:54.574Z,87373.94
2022-08-14T02:33:21.880Z,87367.91
2022-08-14T02:35:53.442Z,87367.91
2022-08-14T02:38:35.102Z,87363.78
2022-08-14T02:45:12.543Z,87358.88
2022-08-14T02:47:39.726Z,87353.59
2022-08-14T02:50:15.248Z,87346.41
2022-08-14T02:53:05.707Z,87356.22
2022-08-14T02:55:32.073Z,87352.84
2022-08-14T02:58:03.573Z,87353.59
2022-08-14T03:00:35.078Z,87350.19
2022-08-14T03:03:07.841Z,87345.31
2022-08-14T03:05:36.993Z,87336.63
2022-08-14T03:08:15.995Z,87333.97
2022-08-14T03:10:48.736Z,87330.56
2022-08-14T03:13:21.452Z,87318.16
2022-08-14T03:15:56.111Z,87320.78
2022-08-14T03:18:31.512Z,87325.66
2022-08-14T03:21:07.445Z,87318.50
2022-08-14T03:23:37.681Z,87318.91
2022-08-14T03:26:18.262Z,87320.78
2022-08-14T03:28:57.387Z,87331.00
2022-08-14T03:35:37.442Z,87323.44
2022-08-14T03:39:12.192Z,87315.13
2022-08-14T03:40:58.124Z,87316.66
2022-08-14T03:43:28.423Z,87314.41
2022-08-14T03:45:59.785Z,87311.38
2022-08-14T03:48:31.112Z,87316.28
2022-08-14T03:55:12.512Z,87305.31
2022-08-14T03:57:42.681Z,87302.28
2022-08-14T04:00:27.692Z,87296.28
2022-08-14T04:03:02.158Z,87296.66
2022-08-14T04:05:29.867Z,87287.59
2022-08-14T04:08:28.956Z,87281.94
2022-08-14T04:14:57.173Z,87278.91
2022-08-14T04:17:24.998Z,87277.41
2022-08-14T04:19:53.422Z,87280.44
2022-08-14T04:22:21.972Z,87282.69
2022-08-14T04:24:50.061Z,87290.25
2022-08-14T04:27:18.590Z,87296.66
2022-08-14T04:29:46.164Z,87292.88
2022-08-14T04:33:01.778Z,87295.53
2022-08-14T04:35:07.841Z,87300.41
2022-08-14T04:37:38.866Z,87304.94
2022-08-14T04:40:09.025Z,87294.75
2022-08-14T04:42:37.121Z,87295.91
2022-08-14T04:45:14.545Z,87298.53
2022-08-14T04:51:56.442Z,87294.00
2022-08-14T04:54:25.224Z,87297.41
2022-08-14T04:56:54.362Z,87297.78
2022-08-14T04:59:24.328Z,87300.78
2022-08-14T05:13:47.406Z,87292.47
2022-08-14T05:16:20.772Z,87290.97
2022-08-14T05:22:41.056Z,87287.94
2022-08-14T05:25:09.920Z,87290.22
2022-08-14T05:31:20.676Z,87286.84
2022-08-14T05:33:56.574Z,87283.81
2022-08-14T05:36:25.114Z,87275.91
2022-08-14T05:38:53.724Z,87278.19
2022-08-14T05:41:21.789Z,87275.56
2022-08-14T05:43:49.557Z,87268.38
2022-08-14T05:46:20.877Z,87258.19
2022-08-14T05:48:57.303Z,87252.16
2022-08-14T05:51:27.186Z,87248.75
2022-08-14T05:54:01.701Z,87242.75
2022-08-14T05:56:44.292Z,87237.81
2022-08-14T05:59:12.083Z,87240.06
2022-08-14T06:01:39.682Z,87236.25
2022-08-14T06:04:07.376Z,87238.13
2022-08-14T06:06:38.657Z,87239.25
2022-08-14T06:09:06.890Z,87233.53
2022-08-14T06:19:11.213Z,87239.03
2022-08-14T06:21:40.531Z,87233.28
2022-08-14T06:24:10.314Z,87237.75
2022-08-14T06:26:51.952Z,87246.00
2022-08-14T06:29:24.670Z,87240.63
2022-08-14T06:35:44.171Z,87243.47
2022-08-14T06:38:23.429Z,87252.44
2022-08-14T06:40:53.200Z,87259.56
2022-08-14T06:47:34.360Z,87260.53
2022-08-14T06:50:03.526Z,87250.22
2022-08-14T06:52:32.674Z,87250.09
2022-08-14T06:54:59.888Z,87242.84
2022-08-14T06:57:40.142Z,87249.59
2022-08-14T07:00:22.288Z,87238.13
2022-08-14T07:02:54.908Z,87237.59
2022-08-14T07:05:23.495Z,87237.09
2022-08-14T07:11:42.683Z,87234.97
2022-08-14T07:18:14.206Z,87226.34
2022-08-14T07:20:42.905Z,87222.06
2022-08-14T07:23:20.951Z,87217.00
2022-08-14T07:25:51.671Z,87211.56
2022-08-14T07:28:24.683Z,87206.53
2022-08-14T07:30:54.576Z,87207.91
2022-08-14T07:33:24.623Z,87198.63
2022-08-14T07:35:59.771Z,87206.41
2022-08-14T07:38:35.748Z,87186.56
2022-08-14T07:41:14.384Z,87187.94
2022-08-14T07:43:55.169Z,87183.25
2022-08-14T07:46:28.263Z,87178.50
2022-08-14T07:52:39.045Z,87170.16
2022-08-14T07:55:11.791Z,87164.19
2022-08-14T07:57:40.799Z,87160.66
2022-08-14T08:00:31.295Z,87156.66
2022-08-14T08:03:00.361Z,87160.28
2022-08-14T08:09:10.342Z,87160.28
2022-08-14T08:15:21.710Z,87159.13
2022-08-14T08:17:53.830Z,87161.22
2022-08-14T08:20:29.288Z,87171.25
2022-08-14T08:22:57.707Z,87169.91
2022-08-14T08:25:39.866Z,87176.16
2022-08-14T08:32:43.856Z,87174.91
2022-08-14T08:39:16.598Z,87177.88
2022-08-14T08:41:50.668Z,87178.78
2022-08-14T08:44:31.938Z,87176.59
2022-08-14T08:47:03.477Z,87171.00
2022-08-14T08:49:43.309Z,87174.91
2022-08-14T08:56:30.606Z,87160.84
2022-08-14T08:59:20.847Z,87161.34
2022-08-14T09:01:57.887Z,87152.00
2022-08-14T09:04:45.335Z,87151.81
2022-08-14T09:07:27.531Z,87140.19
2022-08-14T09:09:59.866Z,87148.00
2022-08-14T09:12:33.141Z,87137.00
2022-08-14T09:19:00.325Z,87139.28
2022-08-14T09:21:31.398Z,87140.56
2022-08-14T09:24:28.834Z,87137.91
2022-08-14T09:26:49.522Z,87135.69
2022-08-14T09:29:22.880Z,87127.03
2022-08-14T09:31:58.131Z,87119.66
2022-08-14T09:34:58.457Z,87114.75
2022-08-14T09:37:48.331Z,87112.16
2022-08-14T09:40:59.684Z,87117.72
2022-08-14T09:44:04.633Z,87120.06
2022-08-14T09:46:35.366Z,87121.63
2022-08-14T09:49:16.350Z,87123.47
2022-08-14T09:51:58.455Z,87119.81
2022-08-14T09:54:47.486Z,87114.63
2022-08-14T09:57:30.197Z,87114.75
2022-08-14T09:59:57.806Z,87109.47
2022-08-14T10:10:43.681Z,87126.94
2022-08-14T10:13:26.766Z,87118.53
2022-08-14T10:20:03.709Z,87113.44
2022-08-14T10:23:12.519Z,87114.56
2022-08-14T10:29:31.341Z,87108.06
2022-08-14T10:36:00.862Z,87101.47
2022-08-14T10:38:33.855Z,87097.78
2022-08-14T10:41:16.839Z,87092.06
2022-08-14T10:44:04.632Z,87088.22
2022-08-14T10:50:44.347Z,87078.13
2022-08-14T10:53:13.504Z,87080.84
2022-08-14T10:59:57.021Z,87073.50
2022-08-14T11:02:54.050Z,87065.41
2022-08-14T11:05:25.486Z,87069.22
2022-08-14T11:07:59.731Z,87058.47
2022-08-14T11:10:57.753Z,87056.19
2022-08-14T11:13:31.710Z,87043.25
2022-08-14T11:16:54.557Z,87048.53
2022-08-14T11:23:38.227Z,87033.06
2022-08-14T11:26:10.301Z,87034.75
2022-08-14T11:32:50.696Z,87033.31
2022-08-14T11:35:25.831Z,87028.56
2022-08-14T11:38:11.753Z,87025.19
2022-08-14T11:40:39.910Z,87026.25
2022-08-14T11:43:09.281Z,87020.69
2022-08-14T11:49:52.009Z,87022.41
2022-08-14T11:52:19.576Z,87017.69
2022-08-14T11:54:58.870Z,87014.44
2022-08-14T11:57:26.318Z,87008.50
2022-08-14T12:00:14.852Z,87008.41
2022-08-14T12:03:03.301Z,87005.88
2022-08-14T12:05:40.148Z,86988.78
2022-08-14T12:08:13.377Z,86987.88
2022-08-14T12:14:56.084Z,86992.41
2022-08-14T12:17:31.910Z,86988.47
2022-08-14T12:20:30.137Z,86984.63
2022-08-14T12:27:01.255Z,86991.13
2022-08-14T12:29:28.473Z,86981.03
2022-08-14T12:32:04.633Z,86973.41
2022-08-14T12:34:34.929Z,86972.25
2022-08-14T12:46:40.598Z,86971.78
2022-08-14T12:49:17.928Z,86966.41
2022-08-14T12:56:21.643Z,86958.34
2022-08-14T13:02:59.065Z,86939.19
2022-08-14T13:05:31.879Z,86942.44
2022-08-14T13:08:05.568Z,86946.16
2022-08-14T13:15:27.143Z,86925.47
2022-08-14T13:17:58.109Z,86918.03
2022-08-14T13:20:27.856Z,86918.06
2022-08-14T13:39:36.714Z,86892.72
2022-08-14T13:42:08.316Z,86897.38
2022-08-14T13:44:38.119Z,86895.66
2022-08-14T13:47:10.939Z,86892.16
2022-08-14T13:49:40.165Z,86893.34
2022-08-14T13:52:14.592Z,86893.31
2022-08-14T13:59:44.151Z,86876.72
2022-08-14T14:06:25.282Z,86876.41
2022-08-14T14:08:59.145Z,86876.63
2022-08-14T14:11:29.825Z,86878.81
2022-08-14T14:13:58.965Z,86875.78
2022-08-14T14:16:30.887Z,86884.22
2022-08-14T14:19:04.475Z,86882.44
2022-08-14T14:21:34.491Z,86879.56
2022-08-14T14:28:02.021Z,86870.16
2022-08-14T14:30:51.828Z,86868.19
2022-08-14T14:33:44.716Z,86865.00
2022-08-14T14:36:07.796Z,86869.06
2022-08-14T14:38:40.281Z,86863.03
2022-08-14T14:41:08.662Z,86859.00
2022-08-14T14:43:41.542Z,86860.22
2022-08-14T14:46:13.406Z,86857.47
2022-08-14T14:48:46.755Z,86861.91
2022-08-14T14:51:21.779Z,86858.09
2022-08-14T14:53:49.199Z,86862.72
2022-08-14T14:56:51.688Z,86859.47
2022-08-14T14:59:05.065Z,86856.69
2022-08-14T15:05:33.139Z,86857.81
2022-08-14T15:12:00.030Z,86857.06
2022-08-14T15:14:55.498Z,86867.50
2022-08-14T15:17:35.021Z,86857.16
2022-08-14T15:24:02.208Z,86858.16
2022-08-14T15:26:32.540Z,86845.88
2022-08-14T15:29:06.431Z,86838.91
2022-08-14T15:32:08.700Z,86843.75
2022-08-14T15:34:46.112Z,86834.00
2022-08-14T15:37:20.373Z,86834.22
2022-08-14T15:39:52.655Z,86842.63
2022-08-14T15:42:22.083Z,86837.50
2022-08-14T15:44:57.272Z,86831.75
2022-08-14T15:47:31.027Z,86824.84
2022-08-14T15:50:01.253Z,86833.34
2022-08-14T15:52:35.307Z,86829.25
2022-08-14T15:55:09.084Z,86832.81
2022-08-14T15:57:39.530Z,86823.59
2022-08-14T16:00:43.458Z,86832.94
2022-08-14T16:03:12.205Z,86831.34
2022-08-14T16:05:41.354Z,86833.41
2022-08-14T16:08:28.956Z,86826.81
2022-08-14T16:11:00.806Z,86830.78
2022-08-14T16:13:39.276Z,86824.38
2022-08-14T16:16:49.813Z,86821.75
2022-08-14T16:19:45.726Z,86826.50
2022-08-14T16:22:59.241Z,86831.25
2022-08-14T16:29:10.872Z,86831.72
2022-08-14T16:31:38.833Z,86837.81
2022-08-14T16:34:44.469Z,86832.59
2022-08-14T16:36:55.160Z,86834.25
2022-08-14T16:39:23.993Z,86832.41
2022-08-14T16:41:53.148Z,86831.34
2022-08-14T16:44:33.789Z,86832.47
2022-08-14T16:47:05.473Z,86830.41
2022-08-14T16:50:02.941Z,86832.00
2022-08-14T16:52:26.346Z,86826.47
2022-08-14T16:59:20.843Z,86828.81
2022-08-14T17:06:25.693Z,86843.22
2022-08-14T17:12:45.027Z,86852.50
2022-08-14T17:15:15.005Z,86849.50
2022-08-14T17:17:57.987Z,86851.75
2022-08-14T17:24:57.701Z,86853.53
2022-08-14T17:31:58.000Z,86868.41
2022-08-14T17:34:46.108Z,86868.53
2022-08-14T17:37:29.230Z,86871.34
2022-08-14T17:52:34.781Z,86874.13
2022-08-14T17:56:05.476Z,86868.56
2022-08-14T17:58:41.897Z,86873.59
2022-08-14T18:05:10.908Z,86887.66
2022-08-14T18:08:00.429Z,86888.28
2022-08-14T18:14:31.570Z,86889.38
2022-08-14T18:17:02.415Z,86886.09
2022-08-14T18:19:34.572Z,86885.06
2022-08-14T18:22:04.057Z,86891.53
2022-08-14T18:24:31.989Z,86887.84
2022-08-14T18:27:23.045Z,86890.13
2022-08-14T18:29:55.460Z,86894.34
2022-08-14T18:32:32.755Z,86905.16
2022-08-14T18:35:11.486Z,86904.78
2022-08-14T18:37:42.542Z,86898.78
2022-08-14T18:44:10.634Z,86913.34
2022-08-14T18:50:31.310Z,86916.44
2022-08-14T18:53:10.614Z,86920.16
2022-08-14T18:55:53.544Z,86926.75
2022-08-14T19:11:24.091Z,86941.03
2022-08-14T19:14:05.180Z,86947.31
2022-08-14T19:21:01.875Z,86944.03
2022-08-14T19:23:42.115Z,86947.63
2022-08-14T19:26:33.878Z,86963.91
2022-08-14T19:29:35.891Z,86950.03
2022-08-14T19:32:36.482Z,86951.50
2022-08-14T19:35:24.690Z,86961.22
2022-08-14T19:38:08.865Z,86962.84
2022-08-14T19:40:56.222Z,86957.31
2022-08-14T19:43:50.850Z,86964.63
2022-08-14T19:55:18.514Z,86969.94
2022-08-14T19:57:57.885Z,86963.69
2022-08-14T20:00:29.059Z,86967.25
2022-08-14T20:03:10.175Z,86975.78
2022-08-14T20:05:42.811Z,86976.94
2022-08-14T20:12:29.296Z,86985.59
2022-08-14T20:15:11.306Z,86995.56
2022-08-14T20:22:34.699Z,86989.88
2022-08-14T20:24:54.145Z,87005.97
2022-08-14T20:27:33.541Z,87005.22
2022-08-14T20:30:35.694Z,87002.53
2022-08-14T20:33:11.190Z,87013.38
2022-08-14T20:35:49.045Z,87011.59
2022-08-14T20:38:30.938Z,87012.03
2022-08-14T20:45:13.316Z,87016.31
2022-08-14T20:47:53.595Z,87006.78
2022-08-14T20:50:28.810Z,87014.53
2022-08-14T20:52:59.517Z,87009.16
2022-08-14T20:55:41.705Z,87005.41
2022-08-14T20:58:44.242Z,87004.50
2022-08-14T21:01:19.738Z,86998.53
2022-08-14T21:03:56.795Z,87002.06
2022-08-14T21:07:23.012Z,86999.22
2022-08-14T21:10:05.660Z,87005.47
2022-08-14T21:12:35.286Z,87009.78
2022-08-14T21:15:11.137Z,87001.25
2022-08-14T21:17:39.563Z,87001.81
2022-08-14T21:20:25.938Z,87005.06
2022-08-14T21:22:56.574Z,86998.66
2022-08-14T21:25:29.004Z,87006.38
2022-08-14T21:28:06.853Z,86993.13
2022-08-14T21:30:46.636Z,86991.63
2022-08-14T21:33:19.615Z,86992.94
2022-08-14T21:35:54.778Z,86992.22
2022-08-14T21:38:33.491Z,86981.50
2022-08-14T21:41:41.539Z,86984.59
2022-08-14T21:44:01.638Z,86988.88
2022-08-14T21:46:30.694Z,86999.19
2022-08-14T21:48:57.932Z,87000.50
2022-08-14T21:51:53.400Z,86989.47
2022-08-14T21:58:52.058Z,86998.00
2022-08-14T22:01:10.731Z,86998.00
2022-08-14T22:03:46.903Z,86999.94
2022-08-14T22:06:28.646Z,87000.06
2022-08-14T22:08:59.531Z,86988.00
2022-08-14T22:11:28.508Z,86988.41
2022-08-14T22:13:56.383Z,86985.75
2022-08-14T22:17:02.139Z,86992.72
2022-08-14T22:19:20.316Z,86999.34
2022-08-14T22:21:50.896Z,87000.22
2022-08-14T22:24:37.514Z,86990.25
2022-08-14T22:31:23.010Z,86997.28
2022-08-14T22:33:57.792Z,86998.16
2022-08-14T22:36:26.219Z,86992.19
2022-08-14T22:38:55.479Z,86986.06
2022-08-14T22:41:31.520Z,86988.13
2022-08-14T22:44:14.843Z,86982.47
2022-08-14T22:50:55.156Z,86992.66
2022-08-14T22:53:22.789Z,86989.25
2022-08-14T22:55:52.042Z,86979.72
2022-08-14T22:58:30.569Z,86979.72
2022-08-14T23:01:00.149Z,86976.00
2022-08-14T23:03:29.314Z,86977.19
2022-08-14T23:05:56.638Z,86974.63
2022-08-14T23:08:59.797Z,86966.59
2022-08-14T23:11:13.792Z,86966.59
2022-08-14T23:13:43.376Z,86960.50
2022-08-14T23:16:19.826Z,86955.50
2022-08-14T23:18:53.758Z,86961.88
2022-08-14T23:21:24.651Z,86966.06
2022-08-14T23:23:57.610Z,86961.00
2022-08-14T23:26:48.989Z,86959.94
2022-08-14T23:29:17.950Z,86966.81
2022-08-14T23:31:45.373Z,86962.31
2022-08-14T23:34:20.653Z,86962.44
2022-08-14T23:36:55.512Z,86965.13
2022-08-14T23:39:32.495Z,86971.31
2022-08-14T23:42:09.093Z,86979.03
2022-08-14T23:44:38.102Z,86973.38
2022-08-14T23:47:10.721Z,86975.31
2022-08-14T23:50:01.211Z,86971.13
2022-08-14T23:52:51.016Z,86975.00
2022-08-14T23:55:16.953Z,86973.91
2022-08-14T23:57:57.490Z,86956.81
